Time;durP1;ratioP1;P1;durP2;ratioP2;P2;SDS_P1;SDS_P2;PMS_P1;PMS_P2;Temp;Humidity;BMP_temperature;BMP_pressure;BME280_temperature;BME280_humidity;BME280_pressure;Samples;Min_cycle;Max_cycle;Signal;HPM_P1;HPM_P2
2023/02/11 00:01:54;;;;;;;55.38;24.50;;;;;;;;;;5012235;28;20902;-92
2023/02/11 00:04:23;;;;;;;49.65;23.77;;;;;;;;;;5007159;28;20762;-92
2023/02/11 00:06:51;;;;;;;47.38;22.73;;;;;;;;;;5027066;28;21057;-93
2023/02/11 00:09:19;;;;;;;51.55;24.85;;;;;;;;;;5002842;28;20811;-94
2023/02/11 00:11:52;;;;;;;50.72;24.48;;;;;;;;;;5027765;28;20432;-92
2023/02/11 00:14:25;;;;;;;55.58;24.73;;;;;;;;;;5014574;28;20434;-90
2023/02/11 00:16:59;;;;;;;52.80;24.23;;;;;;;;;;5015122;28;20421;-92
2023/02/11 00:19:34;;;;;;;52.20;23.92;;;;;;;;;;5029940;28;20411;-92
2023/02/11 00:22:01;;;;;;;50.90;24.40;;;;;;;;;;5018587;28;20432;-94
2023/02/11 00:24:29;;;;;;;55.22;24.77;;;;;;;;;;5022732;28;20409;-90
2023/02/11 00:26:58;;;;;;;52.33;24.20;;;;;;;;;;5009980;28;20417;-93
2023/02/11 00:29:31;;;;;;;56.30;23.20;;;;;;;;;;5021912;28;20429;-93
2023/02/11 00:32:04;;;;;;;52.47;23.67;;;;;;;;;;5014709;28;20418;-90
2023/02/11 00:34:34;;;;;;;52.88;23.58;;;;;;;;;;5015725;28;20424;-91
2023/02/11 00:37:08;;;;;;;46.83;22.90;;;;;;;;;;5014881;28;20424;-95
2023/02/11 00:39:36;;;;;;;53.22;24.40;;;;;;;;;;5020371;28;20433;-92
2023/02/11 00:42:04;;;;;;;54.42;24.13;;;;;;;;;;5007908;28;20425;-92
2023/02/11 00:44:32;;;;;;;52.88;23.30;;;;;;;;;;5012222;28;20422;-95
2023/02/11 00:47:00;;;;;;;53.37;24.90;;;;;;;;;;5025994;28;20426;-92
2023/02/11 00:49:35;;;;;;;51.78;23.10;;;;;;;;;;5019776;28;20439;-91
2023/02/11 00:52:03;;;;;;;56.97;24.02;;;;;;;;;;5015015;28;20426;-88
2023/02/11 00:54:31;;;;;;;57.60;25.13;;;;;;;;;;5011921;28;20856;-92
2023/02/11 00:56:59;;;;;;;59.33;25.33;;;;;;;;;;5011485;28;20494;-93
2023/02/11 00:59:32;;;;;;;55.58;26.00;;;;;;;;;;5018702;28;20415;-91
2023/02/11 01:02:01;;;;;;;54.75;26.25;;;;;;;;;;5020430;28;20422;-90
2023/02/11 01:04:30;;;;;;;52.10;24.05;;;;;;;;;;5015892;28;20409;-93
2023/02/11 01:06:59;;;;;;;49.53;24.55;;;;;;;;;;5016030;28;20409;-92
2023/02/11 01:09:27;;;;;;;48.63;23.58;;;;;;;;;;5017505;28;20457;-93
2023/02/11 01:12:00;;;;;;;55.58;24.50;;;;;;;;;;5034835;28;20423;-88
2023/02/11 01:14:28;;;;;;;54.38;24.65;;;;;;;;;;5022882;28;20788;-92
2023/02/11 01:17:01;;;;;;;48.63;23.13;;;;;;;;;;5016514;28;20414;-90
2023/02/11 01:19:34;;;;;;;48.47;23.93;;;;;;;;;;5030456;28;20901;-89
2023/02/11 01:22:08;;;;;;;56.25;23.10;;;;;;;;;;5013722;28;20779;-88
2023/02/11 01:24:41;;;;;;;51.30;24.75;;;;;;;;;;5009337;28;20438;-90
2023/02/11 01:27:09;;;;;;;58.97;24.55;;;;;;;;;;5016441;28;20413;-91
2023/02/11 01:29:37;;;;;;;49.22;24.05;;;;;;;;;;5006865;28;20418;-92
2023/02/11 01:32:05;;;;;;;50.77;24.90;;;;;;;;;;5011319;28;20479;-92
2023/02/11 01:34:38;;;;;;;53.33;25.20;;;;;;;;;;5010892;28;20416;-90
2023/02/11 01:37:14;;;;;;;57.53;26.98;;;;;;;;;;5013001;28;20441;-91
2023/02/11 01:39:42;;;;;;;55.47;25.73;;;;;;;;;;5019356;28;20421;-90
2023/02/11 01:42:15;;;;;;;51.55;24.38;;;;;;;;;;5010440;28;20421;-89
2023/02/11 01:44:43;;;;;;;54.80;25.77;;;;;;;;;;5020989;28;20430;-91
2023/02/11 01:47:16;;;;;;;49.40;24.70;;;;;;;;;;5019420;28;20447;-89
2023/02/11 01:49:49;;;;;;;56.17;24.92;;;;;;;;;;5016679;28;20439;-88
2023/02/11 01:52:25;;;;;;;53.17;25.08;;;;;;;;;;5019761;28;20429;-89
2023/02/11 01:57:47;;;;;;;51.83;24.45;;;;;;;;;;5023853;28;20920;-86
2023/02/11 02:00:19;;;;;;;50.55;24.08;;;;;;;;;;5019058;28;20430;-91
2023/02/11 02:02:50;;;;;;;54.63;24.67;;;;;;;;;;5007050;28;20426;-93
2023/02/11 02:05:22;;;;;;;52.60;25.50;;;;;;;;;;5014139;28;20412;-90
2023/02/11 02:07:55;;;;;;;50.63;24.05;;;;;;;;;;5025107;28;20436;-90
2023/02/11 02:10:25;;;;;;;50.00;24.73;;;;;;;;;;5017440;28;20456;-90
2023/02/11 02:12:54;;;;;;;51.42;24.42;;;;;;;;;;5023164;28;20429;-92
2023/02/11 02:15:25;;;;;;;50.40;23.88;;;;;;;;;;5020090;28;20441;-92
2023/02/11 02:18:02;;;;;;;54.55;24.08;;;;;;;;;;5012976;28;20439;-92
2023/02/11 02:20:54;;;;;;;48.47;24.55;;;;;;;;;;5033136;28;20423;-88
2023/02/11 02:23:39;;;;;;;49.53;24.98;;;;;;;;;;5034560;28;20407;-92
2023/02/11 02:26:27;;;;;;;51.20;24.35;;;;;;;;;;5010389;28;20426;-93
2023/02/11 02:29:15;;;;;;;49.95;25.60;;;;;;;;;;5011284;28;20425;-90
2023/02/11 02:32:01;;;;;;;50.90;24.75;;;;;;;;;;5019956;28;20420;-90
2023/02/11 02:34:39;;;;;;;51.72;25.55;;;;;;;;;;5024687;28;20912;-90
2023/02/11 02:37:09;;;;;;;52.28;25.40;;;;;;;;;;5012137;28;20438;-92
2023/02/11 02:39:43;;;;;;;51.35;24.38;;;;;;;;;;5011358;28;20430;-91
2023/02/11 02:42:11;;;;;;;47.63;23.38;;;;;;;;;;5016262;28;20408;-91
2023/02/11 02:44:38;;;;;;;44.67;23.95;;;;;;;;;;5018450;28;20416;-91
2023/02/11 02:47:06;;;;;;;44.38;22.90;;;;;;;;;;5005737;28;20419;-93
2023/02/11 02:49:40;;;;;;;51.97;23.45;;;;;;;;;;5004896;28;20427;-83
2023/02/11 02:52:23;;;;;;;52.90;23.92;;;;;;;;;;5006187;28;20423;-91
2023/02/11 02:55:07;;;;;;;46.67;23.33;;;;;;;;;;5018104;28;20436;-92
2023/02/11 02:57:45;;;;;;;41.88;22.45;;;;;;;;;;4996148;28;20441;-92
2023/02/11 03:00:23;;;;;;;46.33;23.23;;;;;;;;;;5011210;28;20417;-92
2023/02/11 03:02:57;;;;;;;48.70;22.83;;;;;;;;;;5022509;28;20426;-91
2023/02/11 03:05:36;;;;;;;51.25;23.80;;;;;;;;;;5014197;28;20497;-92
2023/02/11 03:08:07;;;;;;;51.15;23.38;;;;;;;;;;5015546;28;20787;-91
2023/02/11 03:10:36;;;;;;;47.13;22.77;;;;;;;;;;5014549;28;20416;-84
2023/02/11 03:13:05;;;;;;;50.17;23.20;;;;;;;;;;5022293;28;20419;-86
2023/02/11 03:15:37;;;;;;;55.58;21.17;;;;;;;;;;5015709;28;20410;-92
2023/02/11 03:18:06;;;;;;;48.05;22.45;;;;;;;;;;5009898;28;20425;-89
2023/02/11 03:20:42;;;;;;;49.53;22.13;;;;;;;;;;5006509;28;20435;-90
2023/02/11 03:23:16;;;;;;;32.67;15.10;;;;;;;;;;5016692;28;20432;-89
2023/02/11 03:25:48;;;;;;;1999.90;999.90;;;;;;;;;;5019465;28;20427;-90
2023/02/11 03:28:21;;;;;;;1999.90;999.90;;;;;;;;;;5023061;28;20433;-91
2023/02/11 03:30:53;;;;;;;55.70;45.10;;;;;;;;;;5012723;28;20415;-88
2023/02/11 03:33:27;;;;;;;56.00;41.00;;;;;;;;;;5009694;28;20421;-92
2023/02/11 03:35:57;;;;;;;55.60;41.20;;;;;;;;;;5011603;28;20998;-90
2023/02/11 03:38:32;;;;;;;46.53;26.48;;;;;;;;;;5016707;28;20421;-86
2023/02/11 03:41:06;;;;;;;40.60;23.57;;;;;;;;;;5020721;28;20423;-89
2023/02/11 03:43:41;;;;;;;40.95;23.70;;;;;;;;;;5029602;28;20911;-91
2023/02/11 03:46:10;;;;;;;35.70;22.40;;;;;;;;;;5033243;28;20419;-92
2023/02/11 03:48:46;;;;;;;31.40;22.13;;;;;;;;;;5017887;28;20422;-91
2023/02/11 03:51:21;;;;;;;39.88;20.83;;;;;;;;;;5006966;28;20435;-89
2023/02/11 03:53:49;;;;;;;43.38;21.73;;;;;;;;;;5018098;28;20420;-92
2023/02/11 03:56:19;;;;;;;30.77;19.55;;;;;;;;;;5036641;28;20435;-92
2023/02/11 03:58:48;;;;;;;34.20;20.27;;;;;;;;;;5007850;28;20426;-92
2023/02/11 04:01:21;;;;;;;36.03;21.00;;;;;;;;;;5014247;28;20426;-92
2023/02/11 04:03:49;;;;;;;36.08;21.05;;;;;;;;;;5011417;28;20747;-93
2023/02/11 04:06:17;;;;;;;35.75;21.88;;;;;;;;;;5027850;28;20414;-93
2023/02/11 04:08:46;;;;;;;35.97;22.13;;;;;;;;;;4998231;28;20415;-92
2023/02/11 04:11:14;;;;;;;37.80;22.83;;;;;;;;;;5011133;28;20410;-90
2023/02/11 04:13:43;;;;;;;32.75;22.13;;;;;;;;;;5023745;28;20420;-93
2023/02/11 04:16:11;;;;;;;39.10;23.27;;;;;;;;;;5016197;28;20412;-92
2023/02/11 04:18:39;;;;;;;40.40;23.02;;;;;;;;;;5009388;28;20429;-90
2023/02/11 04:21:08;;;;;;;36.35;22.35;;;;;;;;;;5021192;28;20414;-92
2023/02/11 04:23:36;;;;;;;38.88;22.98;;;;;;;;;;5014091;28;20420;-93
2023/02/11 04:26:06;;;;;;;38.08;23.05;;;;;;;;;;5009196;28;20420;-90
2023/02/11 04:28:39;;;;;;;38.42;23.13;;;;;;;;;;5019745;28;20440;-94
2023/02/11 04:31:07;;;;;;;41.25;23.75;;;;;;;;;;5008135;28;20938;-91
2023/02/11 04:33:35;;;;;;;34.97;21.10;;;;;;;;;;5035401;28;20924;-92
2023/02/11 04:36:03;;;;;;;44.55;22.15;;;;;;;;;;5025233;28;20455;-92
2023/02/11 04:38:31;;;;;;;46.65;23.20;;;;;;;;;;5029296;28;20413;-92
2023/02/11 04:41:02;;;;;;;40.07;22.10;;;;;;;;;;5016717;28;20433;-92
2023/02/11 04:43:32;;;;;;;38.50;22.27;;;;;;;;;;5029366;28;20933;-91
2023/02/11 04:46:00;;;;;;;36.15;22.25;;;;;;;;;;5018128;28;20428;-93
2023/02/11 04:48:33;;;;;;;41.42;22.55;;;;;;;;;;5019417;28;20413;-92
2023/02/11 04:51:01;;;;;;;41.10;20.98;;;;;;;;;;5014947;28;20435;-91
2023/02/11 04:53:30;;;;;;;35.50;19.80;;;;;;;;;;5009297;28;20433;-90
2023/02/11 04:55:58;;;;;;;33.45;19.30;;;;;;;;;;5021461;28;20426;-90
2023/02/11 04:58:26;;;;;;;31.08;17.80;;;;;;;;;;5012978;28;20427;-92
2023/02/11 05:00:55;;;;;;;42.08;19.10;;;;;;;;;;5006754;28;20418;-92
2023/02/11 05:03:23;;;;;;;33.58;17.77;;;;;;;;;;5010766;28;20424;-92
2023/02/11 05:05:52;;;;;;;35.70;18.73;;;;;;;;;;5012053;28;20428;-92
2023/02/11 05:08:24;;;;;;;28.45;17.52;;;;;;;;;;5021104;28;20422;-86
2023/02/11 05:10:53;;;;;;;38.20;18.58;;;;;;;;;;5038052;28;20419;-93
2023/02/11 05:13:21;;;;;;;33.50;17.52;;;;;;;;;;5013151;28;21067;-90
2023/02/11 05:15:56;;;;;;;36.70;18.23;;;;;;;;;;5012991;28;20430;-92
2023/02/11 05:18:24;;;;;;;30.83;17.95;;;;;;;;;;5012452;28;20433;-91
2023/02/11 05:20:52;;;;;;;38.33;17.40;;;;;;;;;;5018023;28;20448;-92
2023/02/11 05:23:20;;;;;;;30.77;16.42;;;;;;;;;;5017448;28;20446;-93
2023/02/11 05:25:49;;;;;;;31.08;16.27;;;;;;;;;;5008969;28;20426;-93
2023/02/11 05:28:17;;;;;;;29.17;15.43;;;;;;;;;;5017290;28;20404;-92
2023/02/11 05:30:46;;;;;;;24.98;14.63;;;;;;;;;;5034118;28;20413;-90
2023/02/11 05:33:21;;;;;;;30.87;15.63;;;;;;;;;;5010158;28;20516;-91
2023/02/11 05:35:49;;;;;;;35.30;15.43;;;;;;;;;;5019074;28;20429;-93
2023/02/11 05:38:17;;;;;;;31.73;16.23;;;;;;;;;;5025548;28;20777;-92
2023/02/11 05:40:45;;;;;;;34.03;15.10;;;;;;;;;;5029030;28;20428;-91
2023/02/11 05:43:13;;;;;;;29.37;15.67;;;;;;;;;;5013297;28;20413;-90
2023/02/11 05:45:41;;;;;;;26.33;14.85;;;;;;;;;;5011221;28;20436;-92
2023/02/11 05:48:10;;;;;;;29.40;14.90;;;;;;;;;;5015095;28;20417;-93
2023/02/11 05:50:39;;;;;;;30.95;14.50;;;;;;;;;;5024627;28;20730;-93
2023/02/11 05:53:07;;;;;;;24.73;13.63;;;;;;;;;;5025615;28;20512;-88
2023/02/11 05:55:35;;;;;;;25.48;14.70;;;;;;;;;;5027893;28;20430;-90
2023/02/11 05:58:04;;;;;;;25.17;14.00;;;;;;;;;;5023455;28;20434;-89
2023/02/11 06:00:32;;;;;;;27.40;14.02;;;;;;;;;;5013237;28;20433;-94
2023/02/11 06:03:00;;;;;;;28.17;14.15;;;;;;;;;;5003973;28;20442;-90
2023/02/11 06:05:28;;;;;;;25.90;13.93;;;;;;;;;;5022236;28;20437;-88
2023/02/11 06:07:57;;;;;;;22.67;13.88;;;;;;;;;;5013387;28;20420;-93
2023/02/11 06:10:25;;;;;;;24.85;13.15;;;;;;;;;;5026892;28;20426;-85
2023/02/11 06:12:53;;;;;;;24.65;13.48;;;;;;;;;;5020320;28;20489;-93
2023/02/11 06:15:21;;;;;;;21.55;13.38;;;;;;;;;;5014776;28;20422;-92
2023/02/11 06:17:49;;;;;;;20.20;13.38;;;;;;;;;;5014031;28;20408;-93
2023/02/11 06:20:17;;;;;;;23.07;13.47;;;;;;;;;;5014379;28;20427;-89
2023/02/11 06:22:45;;;;;;;25.40;13.85;;;;;;;;;;5012956;28;20431;-92
2023/02/11 06:25:14;;;;;;;25.13;14.35;;;;;;;;;;5006953;28;20416;-86
2023/02/11 06:27:42;;;;;;;21.43;12.93;;;;;;;;;;5013863;28;20435;-91
2023/02/11 06:30:12;;;;;;;25.77;12.67;;;;;;;;;;5008091;28;20742;-90
2023/02/11 06:32:40;;;;;;;24.42;13.93;;;;;;;;;;5009711;28;20767;-91
2023/02/11 06:35:08;;;;;;;25.60;14.88;;;;;;;;;;5015755;28;20440;-92
2023/02/11 06:37:36;;;;;;;31.48;14.05;;;;;;;;;;5029172;28;20413;-94
2023/02/11 06:50:49;;;;;;;25.10;13.23;;;;;;;;;;6204104;22;2233258;-90
2023/02/11 06:53:17;;;;;;;20.85;13.07;;;;;;;;;;6253679;22;20366;-93
2023/02/11 06:55:45;;;;;;;27.83;13.27;;;;;;;;;;6251441;23;20714;-92
2023/02/11 06:58:13;;;;;;;23.43;13.67;;;;;;;;;;6251317;22;20369;-90
2023/02/11 07:00:41;;;;;;;21.08;12.48;;;;;;;;;;6251687;22;20373;-93
2023/02/11 07:03:14;;;;;;;22.25;12.88;;;;;;;;;;6253351;23;20477;-92
2023/02/11 07:05:42;;;;;;;21.50;12.80;;;;;;;;;;6251378;22;20381;-92
2023/02/11 07:08:11;;;;;;;21.27;12.63;;;;;;;;;;6253274;23;20395;-89
2023/02/11 07:10:39;;;;;;;20.52;12.60;;;;;;;;;;6253119;22;20396;-91
2023/02/11 07:13:07;;;;;;;19.92;12.50;;;;;;;;;;6252999;23;20381;-92
2023/02/11 07:15:36;;;;;;;20.40;12.65;;;;;;;;;;6252427;22;20381;-89
2023/02/11 07:18:04;;;;;;;20.52;12.27;;;;;;;;;;6249177;23;20888;-90
2023/02/11 07:20:32;;;;;;;20.08;12.45;;;;;;;;;;6228526;22;21066;-90
2023/02/11 07:23:00;;;;;;;19.50;11.60;;;;;;;;;;6219693;23;20379;-88
2023/02/11 07:25:29;;;;;;;19.42;10.90;;;;;;;;;;6219878;23;20379;-90
2023/02/11 07:27:57;;;;;;;17.95;11.20;;;;;;;;;;6219371;23;20386;-90
2023/02/11 07:30:25;;;;;;;19.08;11.45;;;;;;;;;;6220509;23;20854;-92
2023/02/11 07:32:57;;;;;;;18.63;11.77;;;;;;;;;;6218911;23;20867;-90
2023/02/11 07:35:25;;;;;;;16.05;10.95;;;;;;;;;;6219523;23;20862;-91
2023/02/11 07:37:53;;;;;;;16.80;10.48;;;;;;;;;;6220936;23;20386;-91
2023/02/11 07:40:21;;;;;;;20.27;10.95;;;;;;;;;;6219771;23;20387;-90
2023/02/11 07:42:50;;;;;;;17.00;10.77;;;;;;;;;;6219275;23;20386;-89
2023/02/11 07:45:18;;;;;;;16.13;11.35;;;;;;;;;;6219018;23;20389;-88
2023/02/11 07:47:46;;;;;;;17.52;10.95;;;;;;;;;;6219556;23;20383;-91
2023/02/11 07:50:14;;;;;;;18.48;10.88;;;;;;;;;;6219350;23;20386;-89
2023/02/11 07:52:42;;;;;;;17.70;11.25;;;;;;;;;;6254411;23;20369;-87
2023/02/11 07:55:14;;;;;;;15.93;10.10;;;;;;;;;;6254842;23;20374;-85
2023/02/11 07:57:42;;;;;;;19.50;10.57;;;;;;;;;;6245085;22;20676;-89
2023/02/11 08:00:13;;;;;;;16.20;10.15;;;;;;;;;;6218171;23;20882;-88
2023/02/11 08:02:41;;;;;;;20.25;11.55;;;;;;;;;;6246121;23;20362;-93
2023/02/11 08:05:09;;;;;;;18.10;12.48;;;;;;;;;;6219254;23;20373;-93
2023/02/11 08:07:36;;;;;;;16.90;9.35;;;;;;;;;;6244503;22;20389;-90
2023/02/11 08:10:05;;;;;;;16.67;9.32;;;;;;;;;;6217743;23;20374;-87
2023/02/11 08:12:37;;;;;;;18.52;9.20;;;;;;;;;;6254119;23;20374;-85
2023/02/11 08:15:05;;;;;;;15.07;9.27;;;;;;;;;;6216202;23;20841;-86
2023/02/11 08:17:36;;;;;;;14.13;9.35;;;;;;;;;;6217074;23;20392;-87
2023/02/11 08:20:04;;;;;;;16.42;9.35;;;;;;;;;;6243529;22;20377;-86
2023/02/11 08:22:32;;;;;;;13.63;9.20;;;;;;;;;;6217130;23;20377;-85
2023/02/11 08:25:00;;;;;;;16.58;9.30;;;;;;;;;;6216644;23;20382;-88
2023/02/11 08:27:28;;;;;;;13.68;8.52;;;;;;;;;;6217032;23;20373;-87
2023/02/11 08:30:01;;;;;;;14.82;9.43;;;;;;;;;;6254480;23;20376;-86
2023/02/11 08:32:34;;;;;;;16.15;8.90;;;;;;;;;;6216645;23;20381;-83
2023/02/11 08:35:06;;;;;;;17.90;9.47;;;;;;;;;;6213614;23;20377;-86
2023/02/11 08:37:34;;;;;;;15.05;9.40;;;;;;;;;;6216281;23;20381;-86
2023/02/11 08:40:02;;;;;;;15.25;9.45;;;;;;;;;;6216127;23;20386;-86
2023/02/11 08:42:35;;;;;;;21.58;8.98;;;;;;;;;;6215627;23;20373;-85
2023/02/11 08:45:09;;;;;;;16.77;9.10;;;;;;;;;;6215810;23;20381;-84
2023/02/11 08:47:37;;;;;;;13.38;8.60;;;;;;;;;;6216753;23;20699;-84
2023/02/11 08:50:06;;;;;;;15.15;9.00;;;;;;;;;;6215932;23;20374;-85
2023/02/11 08:52:35;;;;;;;27.10;9.10;;;;;;;;;;6216978;23;20381;-85
2023/02/11 08:55:03;;;;;;;18.50;9.77;;;;;;;;;;6243497;22;20369;-85
2023/02/11 08:57:36;;;;;;;14.25;8.93;;;;;;;;;;6216268;23;20386;-85
2023/02/11 09:00:04;;;;;;;15.98;9.45;;;;;;;;;;6216260;23;20712;-84
2023/02/11 09:02:32;;;;;;;15.75;9.13;;;;;;;;;;6215942;23;20373;-85
2023/02/11 09:05:00;;;;;;;16.33;9.35;;;;;;;;;;6243727;23;20831;-85
2023/02/11 09:07:29;;;;;;;16.88;9.07;;;;;;;;;;6216178;23;20377;-86
2023/02/11 09:09:57;;;;;;;17.98;9.38;;;;;;;;;;6216273;23;20374;-85
2023/02/11 09:12:24;;;;;;;16.85;9.32;;;;;;;;;;6215027;23;20381;-85
2023/02/11 09:14:57;;;;;;;40.53;37.20;;;;;;;;;;6215560;23;20385;-85
2023/02/11 09:17:25;;;;;;;16.02;10.18;;;;;;;;;;6243820;23;20362;-87
2023/02/11 09:19:53;;;;;;;22.10;10.27;;;;;;;;;;6213811;23;20385;-86
2023/02/11 09:22:25;;;;;;;16.90;10.18;;;;;;;;;;6253365;23;20691;-87
2023/02/11 09:25:00;;;;;;;16.02;11.13;;;;;;;;;;6215632;23;20377;-85
2023/02/11 09:27:33;;;;;;;23.33;13.77;;;;;;;;;;6214232;23;20389;-85
2023/02/11 09:30:06;;;;;;;15.48;9.98;;;;;;;;;;6215726;23;20378;-86
2023/02/11 09:32:39;;;;;;;18.58;9.48;;;;;;;;;;6215896;23;20381;-88
2023/02/11 09:35:07;;;;;;;16.35;9.85;;;;;;;;;;6202503;23;20385;-87
2023/02/11 09:37:40;;;;;;;18.27;10.02;;;;;;;;;;6211166;23;20378;-87
2023/02/11 09:40:10;;;;;;;14.52;9.07;;;;;;;;;;6202385;23;20386;-88
2023/02/11 09:42:45;;;;;;;16.30;9.80;;;;;;;;;;6197486;23;20386;-85
2023/02/11 09:45:20;;;;;;;18.45;9.50;;;;;;;;;;6210551;23;21148;-87
2023/02/11 09:47:50;;;;;;;17.67;9.50;;;;;;;;;;6243565;22;20365;-86
2023/02/11 09:50:21;;;;;;;14.60;9.10;;;;;;;;;;6243290;23;20354;-87
2023/02/11 09:52:55;;;;;;;17.70;9.38;;;;;;;;;;6243510;22;20373;-89
2023/02/11 09:55:26;;;;;;;16.30;9.63;;;;;;;;;;6215643;23;20440;-88
2023/02/11 09:57:55;;;;;;;18.37;9.13;;;;;;;;;;6216311;23;20397;-88
2023/02/11 10:00:24;;;;;;;16.63;8.97;;;;;;;;;;6243369;22;20374;-85
2023/02/11 10:03:23;;;;;;;14.43;8.48;;;;;;;;;;6215726;23;20393;-87
2023/02/11 10:06:01;;;;;;;19.17;8.88;;;;;;;;;;6213862;23;20396;-85
2023/02/11 10:08:55;;;;;;;14.10;8.60;;;;;;;;;;6217172;23;20382;-86
2023/02/11 10:11:30;;;;;;;17.05;9.27;;;;;;;;;;6220596;23;20380;-85
2023/02/11 10:14:01;;;;;;;16.90;9.27;;;;;;;;;;6253093;23;20902;-85
2023/02/11 10:16:36;;;;;;;14.93;8.70;;;;;;;;;;6215347;23;20382;-89
2023/02/11 10:19:12;;;;;;;15.38;8.68;;;;;;;;;;6251811;22;20373;-86
2023/02/11 10:21:46;;;;;;;17.37;9.00;;;;;;;;;;6215603;23;20386;-87
2023/02/11 10:24:15;;;;;;;12.68;7.88;;;;;;;;;;6216571;23;20856;-85
2023/02/11 10:26:45;;;;;;;13.70;7.90;;;;;;;;;;6253616;23;20672;-86
2023/02/11 10:29:17;;;;;;;14.07;8.25;;;;;;;;;;6243180;23;20361;-86
2023/02/11 10:31:45;;;;;;;14.10;7.73;;;;;;;;;;6216443;23;20909;-87
2023/02/11 10:34:14;;;;;;;13.95;7.20;;;;;;;;;;6215692;23;20378;-86
2023/02/11 10:36:45;;;;;;;16.30;8.30;;;;;;;;;;6216163;23;20385;-85
2023/02/11 10:39:14;;;;;;;15.02;7.95;;;;;;;;;;6216356;23;20374;-86
2023/02/11 10:41:44;;;;;;;17.70;8.27;;;;;;;;;;6216357;23;20389;-84
2023/02/11 10:44:21;;;;;;;14.40;7.78;;;;;;;;;;6215220;23;20374;-85
2023/02/11 10:46:50;;;;;;;15.23;8.30;;;;;;;;;;6215542;23;20861;-85
2023/02/11 10:49:37;;;;;;;17.23;8.32;;;;;;;;;;6243460;22;20811;-85
2023/02/11 10:52:12;;;;;;;12.35;7.53;;;;;;;;;;6215355;23;20854;-89
2023/02/11 10:54:40;;;;;;;16.45;7.68;;;;;;;;;;6216066;23;20444;-88
2023/02/11 10:57:17;;;;;;;16.30;7.70;;;;;;;;;;6215177;23;20409;-84
2023/02/11 10:59:48;;;;;;;15.30;7.43;;;;;;;;;;6215751;23;20382;-83
2023/02/11 11:02:21;;;;;;;14.95;7.32;;;;;;;;;;6215538;23;20393;-85
2023/02/11 11:04:49;;;;;;;12.50;7.10;;;;;;;;;;6210498;23;20405;-86
2023/02/11 11:07:23;;;;;;;14.13;7.20;;;;;;;;;;6215682;23;20373;-81
2023/02/11 11:09:58;;;;;;;9.93;5.88;;;;;;;;;;6215872;23;20405;-85
2023/02/11 11:12:31;;;;;;;12.43;6.60;;;;;;;;;;6243061;22;20831;-85
2023/02/11 11:15:01;;;;;;;17.52;6.40;;;;;;;;;;6240881;23;20389;-88
2023/02/11 11:17:29;;;;;;;12.47;6.13;;;;;;;;;;6215785;23;20382;-88
2023/02/11 11:20:15;;;;;;;12.95;6.20;;;;;;;;;;6214590;23;20374;-85
2023/02/11 11:22:48;;;;;;;12.03;6.20;;;;;;;;;;6244497;23;20460;-88
2023/02/11 11:25:26;;;;;;;15.23;6.75;;;;;;;;;;6243533;23;20365;-85
2023/02/11 11:27:55;;;;;;;11.07;5.93;;;;;;;;;;6217740;23;20373;-85
2023/02/11 11:30:26;;;;;;;12.13;5.80;;;;;;;;;;6217960;23;20866;-86
2023/02/11 11:32:56;;;;;;;9.70;5.78;;;;;;;;;;6217160;23;20382;-85
2023/02/11 11:35:25;;;;;;;21.48;6.00;;;;;;;;;;6217324;23;20381;-85
2023/02/11 11:37:54;;;;;;;9.70;5.63;;;;;;;;;;6217881;23;20381;-84
2023/02/11 11:40:23;;;;;;;10.00;5.50;;;;;;;;;;6245022;23;20366;-85
2023/02/11 11:43:03;;;;;;;11.50;5.72;;;;;;;;;;6244405;22;20378;-87
2023/02/11 11:45:33;;;;;;;13.35;5.80;;;;;;;;;;6217049;23;20381;-84
2023/02/11 11:48:04;;;;;;;12.82;6.10;;;;;;;;;;6216381;23;20382;-86
2023/02/11 11:50:34;;;;;;;11.98;6.88;;;;;;;;;;6217077;23;20378;-86
2023/02/11 11:53:04;;;;;;;10.45;5.75;;;;;;;;;;6244858;23;20358;-87
2023/02/11 11:55:34;;;;;;;10.38;4.97;;;;;;;;;;6217072;23;20382;-86
2023/02/11 11:58:02;;;;;;;10.32;5.20;;;;;;;;;;6217216;23;20381;-85
2023/02/11 12:00:41;;;;;;;11.40;5.38;;;;;;;;;;6216891;23;20378;-84
2023/02/11 12:03:26;;;;;;;16.30;5.47;;;;;;;;;;6217645;23;20389;-84
2023/02/11 12:06:04;;;;;;;14.10;5.63;;;;;;;;;;6216963;23;20970;-84
2023/02/11 12:08:38;;;;;;;11.57;5.37;;;;;;;;;;6254733;23;20433;-85
2023/02/11 12:11:12;;;;;;;13.45;5.60;;;;;;;;;;6244670;23;20810;-86
2023/02/11 12:13:51;;;;;;;19.42;15.35;;;;;;;;;;6216076;23;20374;-84
2023/02/11 12:16:32;;;;;;;13.63;6.00;;;;;;;;;;6253037;23;20441;-85
2023/02/11 12:19:25;;;;;;;9.57;5.03;;;;;;;;;;6213436;22;20373;-84
2023/02/11 12:22:02;;;;;;;11.55;5.50;;;;;;;;;;6190153;23;20867;-86
2023/02/11 12:24:37;;;;;;;13.50;5.55;;;;;;;;;;6215296;23;20699;-86
2023/02/11 12:27:08;;;;;;;10.88;5.35;;;;;;;;;;6214886;23;20382;-84
2023/02/11 12:29:48;;;;;;;12.63;5.60;;;;;;;;;;6216375;23;20384;-85
2023/02/11 12:32:25;;;;;;;11.55;5.55;;;;;;;;;;6253164;23;20357;-87
2023/02/11 12:35:11;;;;;;;10.57;5.72;;;;;;;;;;6215454;23;20378;-85
2023/02/11 12:38:07;;;;;;;11.65;5.60;;;;;;;;;;6210997;23;20381;-87
2023/02/11 12:40:43;;;;;;;10.40;5.10;;;;;;;;;;6215851;23;20842;-87
2023/02/11 12:43:19;;;;;;;10.50;4.82;;;;;;;;;;6216227;23;20385;-88
2023/02/11 12:46:02;;;;;;;10.65;4.60;;;;;;;;;;6216180;23;20381;-86
2023/02/11 12:48:53;;;;;;;11.27;4.63;;;;;;;;;;6212935;23;20378;-87
2023/02/11 12:51:27;;;;;;;10.15;4.68;;;;;;;;;;6216155;23;20381;-86
2023/02/11 12:54:21;;;;;;;7.75;4.63;;;;;;;;;;6216057;23;20367;-86
2023/02/11 12:57:01;;;;;;;8.02;4.53;;;;;;;;;;6211603;23;20382;-86
2023/02/11 12:59:34;;;;;;;13.57;4.40;;;;;;;;;;6214269;23;20374;-88
2023/02/11 13:02:09;;;;;;;8.10;4.30;;;;;;;;;;6239014;23;20712;-86
2023/02/11 13:04:40;;;;;;;9.90;4.53;;;;;;;;;;6215914;23;20374;-87
2023/02/11 13:07:15;;;;;;;7.13;4.43;;;;;;;;;;6216812;23;20382;-85
2023/02/11 13:09:45;;;;;;;11.53;5.83;;;;;;;;;;6243087;22;20851;-88
2023/02/11 13:15:06;;;;;;;7.68;4.30;;;;;;;;;;6216083;23;20381;-86
2023/02/11 13:17:38;;;;;;;9.77;4.60;;;;;;;;;;6243717;22;20369;-87
2023/02/11 13:20:17;;;;;;;9.00;4.60;;;;;;;;;;6248076;22;20832;-86
2023/02/11 13:22:52;;;;;;;9.85;4.32;;;;;;;;;;6215989;23;20715;-86
2023/02/11 13:25:29;;;;;;;8.27;4.13;;;;;;;;;;6215648;23;20389;-86
2023/02/11 13:28:00;;;;;;;9.05;4.20;;;;;;;;;;6249194;23;20358;-87
2023/02/11 13:30:31;;;;;;;8.30;4.10;;;;;;;;;;6215271;23;20382;-86
2023/02/11 13:33:17;;;;;;;8.60;4.68;;;;;;;;;;6213597;23;20378;-86
2023/02/11 13:35:47;;;;;;;9.55;4.35;;;;;;;;;;6213131;23;20377;-86
2023/02/11 13:38:21;;;;;;;8.77;4.07;;;;;;;;;;6241690;22;20361;-86
2023/02/11 13:41:01;;;;;;;10.55;4.47;;;;;;;;;;6252321;23;20862;-87
2023/02/11 13:43:34;;;;;;;11.32;4.60;;;;;;;;;;6212050;23;20382;-87
2023/02/11 13:46:12;;;;;;;11.57;5.10;;;;;;;;;;6214140;23;20385;-86
2023/02/11 13:48:45;;;;;;;12.52;5.47;;;;;;;;;;6215519;23;20708;-86
2023/02/11 13:51:15;;;;;;;12.33;5.00;;;;;;;;;;6214218;23;21328;-85
2023/02/11 13:53:50;;;;;;;13.80;5.05;;;;;;;;;;6213149;23;20381;-86
2023/02/11 13:56:29;;;;;;;12.02;4.68;;;;;;;;;;6214921;23;20370;-86
2023/02/11 13:58:57;;;;;;;10.00;4.72;;;;;;;;;;6217050;23;20433;-88
2023/02/11 14:01:42;;;;;;;10.07;4.97;;;;;;;;;;6216323;23;20830;-87
2023/02/11 14:10:24;;;;;;;12.60;7.32;;;;;;;;;;6215125;23;20378;-87
2023/02/11 14:13:17;;;;;;;9.30;5.10;;;;;;;;;;6214759;23;20382;-86
2023/02/11 14:16:03;;;;;;;9.10;5.30;;;;;;;;;;6212994;23;20385;-86
2023/02/11 14:18:50;;;;;;;9.73;5.40;;;;;;;;;;6215048;23;20378;-86
2023/02/11 14:21:20;;;;;;;10.88;5.45;;;;;;;;;;6215925;23;20739;-87
2023/02/11 14:23:49;;;;;;;13.13;5.53;;;;;;;;;;6243036;23;20819;-86
2023/02/11 14:26:28;;;;;;;15.05;5.85;;;;;;;;;;6215718;23;21013;-86
2023/02/11 14:29:09;;;;;;;10.82;5.60;;;;;;;;;;6215617;23;20692;-86
2023/02/11 14:31:40;;;;;;;14.13;5.57;;;;;;;;;;6215153;23;20389;-86
2023/02/11 14:34:26;;;;;;;11.73;4.80;;;;;;;;;;6242894;23;20369;-87
2023/02/11 14:37:07;;;;;;;13.07;5.82;;;;;;;;;;6215786;23;21239;-85
2023/02/11 14:39:48;;;;;;;12.40;5.50;;;;;;;;;;6216506;23;20792;-86
2023/02/11 14:42:17;;;;;;;10.85;5.30;;;;;;;;;;6214895;23;20794;-86
2023/02/11 14:44:48;;;;;;;17.43;5.37;;;;;;;;;;6213949;23;20381;-86
2023/02/11 14:47:23;;;;;;;13.40;5.30;;;;;;;;;;6214746;23;20946;-85
2023/02/11 14:49:51;;;;;;;12.57;4.73;;;;;;;;;;6215695;23;20382;-85
2023/02/11 14:52:23;;;;;;;11.98;4.50;;;;;;;;;;6214690;23;20381;-85
2023/02/11 14:55:01;;;;;;;8.20;4.47;;;;;;;;;;6214517;23;21030;-87
2023/02/11 14:57:36;;;;;;;10.45;4.60;;;;;;;;;;6214829;23;20373;-87
2023/02/11 15:00:13;;;;;;;8.77;4.63;;;;;;;;;;6215987;23;20389;-86
2023/02/11 15:02:46;;;;;;;7.63;4.45;;;;;;;;;;6217157;23;20381;-87
2023/02/11 15:05:16;;;;;;;10.07;4.60;;;;;;;;;;6217197;23;20389;-85
2023/02/11 15:07:44;;;;;;;7.88;4.10;;;;;;;;;;6216654;23;20385;-86
2023/02/11 15:10:20;;;;;;;7.28;4.07;;;;;;;;;;6217683;23;20381;-87
2023/02/11 15:12:53;;;;;;;11.82;4.22;;;;;;;;;;6255018;23;20372;-85
2023/02/11 15:15:23;;;;;;;9.30;4.40;;;;;;;;;;6217566;23;20377;-85